Авиационная погода в Архангельске

СКИДКИ НА СМАРТФОНЫ!

Регион: 
Погода METAR: 
ULAA 190400Z VRB01MPS CAVOK 20/16 Q1027 R08/CLRD70 NOSIG RMK QFE769/1025
Время наблюдения
2022-08-19T04:00:00Z
Температура C
20.0
Точка росы
16.0
Направление ветра
0
Скорость ветра (узлы)
2
Метео видимость
6.21
Облачность
CAVOK
Нижняя граница облачности (футы)
Явления погоды
Условия полета
VFR
Аэропорт подробнее: 

Скидки на навигаторы!